sensor_id;sensor_type;location;lat;lon;timestamp;temperature;humidity
17887;DHT22;9069;52.044;7.472;2023-05-02T00:01:19;16.80;83.40
17887;DHT22;9069;52.044;7.472;2023-05-02T00:03:46;16.60;83.30
17887;DHT22;9069;52.044;7.472;2023-05-02T00:06:13;16.60;83.50
17887;DHT22;9069;52.044;7.472;2023-05-02T00:08:40;16.50;83.50
17887;DHT22;9069;52.044;7.472;2023-05-02T00:11:07;16.50;84.30
17887;DHT22;9069;52.044;7.472;2023-05-02T00:13:34;16.50;83.80
17887;DHT22;9069;52.044;7.472;2023-05-02T00:16:00;16.40;83.90
17887;DHT22;9069;52.044;7.472;2023-05-02T00:18:27;16.40;83.90
17887;DHT22;9069;52.044;7.472;2023-05-02T00:20:54;16.30;84.00
17887;DHT22;9069;52.044;7.472;2023-05-02T00:23:22;16.40;84.50
17887;DHT22;9069;52.044;7.472;2023-05-02T00:25:49;16.30;84.60
17887;DHT22;9069;52.044;7.472;2023-05-02T00:28:16;16.30;84.90
17887;DHT22;9069;52.044;7.472;2023-05-02T00:30:44;16.30;85.20
17887;DHT22;9069;52.044;7.472;2023-05-02T00:33:12;16.20;85.40
17887;DHT22;9069;52.044;7.472;2023-05-02T00:35:40;16.10;85.60
17887;DHT22;9069;52.044;7.472;2023-05-02T00:38:07;16.10;85.70
17887;DHT22;9069;52.044;7.472;2023-05-02T00:40:52;16.10;85.90
17887;DHT22;9069;52.044;7.472;2023-05-02T00:43:19;16.00;87.50
17887;DHT22;9069;52.044;7.472;2023-05-02T00:45:47;16.00;86.30
17887;DHT22;9069;52.044;7.472;2023-05-02T00:48:14;16.00;87.00
17887;DHT22;9069;52.044;7.472;2023-05-02T00:50:42;16.00;86.90
17887;DHT22;9069;52.044;7.472;2023-05-02T00:53:09;15.90;87.00
17887;DHT22;9069;52.044;7.472;2023-05-02T00:55:37;15.90;87.20
17887;DHT22;9069;52.044;7.472;2023-05-02T00:58:07;15.90;87.50
17887;DHT22;9069;52.044;7.472;2023-05-02T01:03:35;15.80;88.60
17887;DHT22;9069;52.044;7.472;2023-05-02T01:08:42;15.80;88.20
17887;DHT22;9069;52.044;7.472;2023-05-02T01:11:20;15.80;89.10
17887;DHT22;9069;52.044;7.472;2023-05-02T01:13:50;15.80;89.70
17887;DHT22;9069;52.044;7.472;2023-05-02T01:16:19;15.80;89.70
17887;DHT22;9069;52.044;7.472;2023-05-02T01:18:47;15.80;89.60
17887;DHT22;9069;52.044;7.472;2023-05-02T01:21:15;15.90;89.80
17887;DHT22;9069;52.044;7.472;2023-05-02T01:26:44;15.70;90.60
17887;DHT22;9069;52.044;7.472;2023-05-02T01:29:14;15.70;90.30
17887;DHT22;9069;52.044;7.472;2023-05-02T01:31:44;15.80;90.10
17887;DHT22;9069;52.044;7.472;2023-05-02T01:34:12;15.70;90.30
17887;DHT22;9069;52.044;7.472;2023-05-02T01:36:44;15.70;90.20
17887;DHT22;9069;52.044;7.472;2023-05-02T01:39:14;15.70;90.70
17887;DHT22;9069;52.044;7.472;2023-05-02T01:41:42;15.70;90.60
17887;DHT22;9069;52.044;7.472;2023-05-02T01:44:10;15.70;90.60
17887;DHT22;9069;52.044;7.472;2023-05-02T01:46:40;15.70;90.60
17887;DHT22;9069;52.044;7.472;2023-05-02T01:49:09;15.80;90.90
17887;DHT22;9069;52.044;7.472;2023-05-02T01:51:46;15.70;90.70
17887;DHT22;9069;52.044;7.472;2023-05-02T01:54:15;15.70;91.30
17887;DHT22;9069;52.044;7.472;2023-05-02T01:56:43;15.70;91.00
17887;DHT22;9069;52.044;7.472;2023-05-02T01:59:16;15.70;91.00
17887;DHT22;9069;52.044;7.472;2023-05-02T02:01:44;15.70;91.20
17887;DHT22;9069;52.044;7.472;2023-05-02T02:04:12;15.70;91.10
17887;DHT22;9069;52.044;7.472;2023-05-02T02:06:45;15.80;91.20
17887;DHT22;9069;52.044;7.472;2023-05-02T02:09:13;15.70;91.40
17887;DHT22;9069;52.044;7.472;2023-05-02T02:11:52;15.70;91.20
17887;DHT22;9069;52.044;7.472;2023-05-02T02:14:24;15.70;91.70
17887;DHT22;9069;52.044;7.472;2023-05-02T02:16:54;15.70;91.40
17887;DHT22;9069;52.044;7.472;2023-05-02T02:19:22;15.80;91.50
17887;DHT22;9069;52.044;7.472;2023-05-02T02:21:50;15.70;91.40
17887;DHT22;9069;52.044;7.472;2023-05-02T02:24:20;15.70;91.60
17887;DHT22;9069;52.044;7.472;2023-05-02T02:26:48;15.70;91.60
17887;DHT22;9069;52.044;7.472;2023-05-02T02:29:15;15.60;91.50
17887;DHT22;9069;52.044;7.472;2023-05-02T02:31:42;15.60;91.50
17887;DHT22;9069;52.044;7.472;2023-05-02T02:34:08;15.70;91.60
17887;DHT22;9069;52.044;7.472;2023-05-02T02:36:42;15.60;91.60
17887;DHT22;9069;52.044;7.472;2023-05-02T02:39:34;15.60;91.60
17887;DHT22;9069;52.044;7.472;2023-05-02T02:42:10;15.70;92.20
17887;DHT22;9069;52.044;7.472;2023-05-02T02:44:53;15.60;92.00
17887;DHT22;9069;52.044;7.472;2023-05-02T02:55:11;15.80;92.50
17887;DHT22;9069;52.044;7.472;2023-05-02T02:57:40;15.60;92.40
17887;DHT22;9069;52.044;7.472;2023-05-02T03:00:19;15.60;92.10
17887;DHT22;9069;52.044;7.472;2023-05-02T03:02:47;15.60;92.60
17887;DHT22;9069;52.044;7.472;2023-05-02T03:05:14;15.60;92.30
17887;DHT22;9069;52.044;7.472;2023-05-02T03:07:41;15.60;92.40
17887;DHT22;9069;52.044;7.472;2023-05-02T03:10:08;15.60;92.50
17887;DHT22;9069;52.044;7.472;2023-05-02T03:12:38;15.60;92.60
17887;DHT22;9069;52.044;7.472;2023-05-02T03:17:54;15.60;93.30
17887;DHT22;9069;52.044;7.472;2023-05-02T03:20:21;15.60;92.80
17887;DHT22;9069;52.044;7.472;2023-05-02T03:22:47;15.60;93.00
17887;DHT22;9069;52.044;7.472;2023-05-02T03:25:14;15.60;93.00
17887;DHT22;9069;52.044;7.472;2023-05-02T03:27:45;15.60;93.10
17887;DHT22;9069;52.044;7.472;2023-05-02T03:30:12;15.60;93.20
17887;DHT22;9069;52.044;7.472;2023-05-02T03:32:39;15.60;93.30
17887;DHT22;9069;52.044;7.472;2023-05-02T03:35:06;15.60;93.30
17887;DHT22;9069;52.044;7.472;2023-05-02T03:37:38;15.60;93.30
17887;DHT22;9069;52.044;7.472;2023-05-02T03:40:05;15.60;93.30
17887;DHT22;9069;52.044;7.472;2023-05-02T03:42:33;15.60;93.30
17887;DHT22;9069;52.044;7.472;2023-05-02T03:45:09;15.60;93.50
17887;DHT22;9069;52.044;7.472;2023-05-02T03:47:36;15.60;93.30
17887;DHT22;9069;52.044;7.472;2023-05-02T03:50:03;15.60;93.30
17887;DHT22;9069;52.044;7.472;2023-05-02T03:52:32;15.60;93.50
17887;DHT22;9069;52.044;7.472;2023-05-02T03:55:00;15.60;93.60
17887;DHT22;9069;52.044;7.472;2023-05-02T03:57:31;15.50;93.60
17887;DHT22;9069;52.044;7.472;2023-05-02T03:59:58;15.50;93.80
17887;DHT22;9069;52.044;7.472;2023-05-02T04:02:37;15.50;93.50
17887;DHT22;9069;52.044;7.472;2023-05-02T04:05:08;15.50;93.60
17887;DHT22;9069;52.044;7.472;2023-05-02T04:07:36;15.50;93.60
17887;DHT22;9069;52.044;7.472;2023-05-02T04:10:05;15.40;93.60
17887;DHT22;9069;52.044;7.472;2023-05-02T04:12:38;15.40;93.70
17887;DHT22;9069;52.044;7.472;2023-05-02T04:15:05;15.40;93.70
17887;DHT22;9069;52.044;7.472;2023-05-02T04:17:32;15.40;93.80
17887;DHT22;9069;52.044;7.472;2023-05-02T04:19:59;15.40;93.70
17887;DHT22;9069;52.044;7.472;2023-05-02T04:22:33;15.40;93.60
17887;DHT22;9069;52.044;7.472;2023-05-02T04:25:03;15.40;93.60
17887;DHT22;9069;52.044;7.472;2023-05-02T04:27:32;15.40;93.60
17887;DHT22;9069;52.044;7.472;2023-05-02T04:29:59;15.30;93.50
17887;DHT22;9069;52.044;7.472;2023-05-02T04:32:27;15.30;93.50
17887;DHT22;9069;52.044;7.472;2023-05-02T04:34:55;15.30;93.40
17887;DHT22;9069;52.044;7.472;2023-05-02T04:37:22;15.20;93.30
17887;DHT22;9069;52.044;7.472;2023-05-02T04:39:49;15.20;93.30
17887;DHT22;9069;52.044;7.472;2023-05-02T04:42:19;15.20;93.30
17887;DHT22;9069;52.044;7.472;2023-05-02T04:45:05;15.20;93.40
17887;DHT22;9069;52.044;7.472;2023-05-02T04:47:32;15.20;93.40
17887;DHT22;9069;52.044;7.472;2023-05-02T04:49:59;15.10;93.40
17887;DHT22;9069;52.044;7.472;2023-05-02T04:52:27;15.10;93.50
17887;DHT22;9069;52.044;7.472;2023-05-02T04:54:55;15.10;93.50
17887;DHT22;9069;52.044;7.472;2023-05-02T04:57:22;15.10;93.50
17887;DHT22;9069;52.044;7.472;2023-05-02T04:59:53;15.10;93.50
17887;DHT22;9069;52.044;7.472;2023-05-02T05:02:20;15.10;93.50
17887;DHT22;9069;52.044;7.472;2023-05-02T05:04:47;15.10;93.50
17887;DHT22;9069;52.044;7.472;2023-05-02T05:07:15;15.10;93.50
17887;DHT22;9069;52.044;7.472;2023-05-02T05:09:44;15.10;93.40
17887;DHT22;9069;52.044;7.472;2023-05-02T05:12:11;15.10;93.30
17887;DHT22;9069;52.044;7.472;2023-05-02T05:14:38;15.10;93.20
17887;DHT22;9069;52.044;7.472;2023-05-02T05:17:05;15.10;93.20
17887;DHT22;9069;52.044;7.472;2023-05-02T05:19:31;15.10;93.20
17887;DHT22;9069;52.044;7.472;2023-05-02T05:21:58;15.10;93.10
17887;DHT22;9069;52.044;7.472;2023-05-02T05:24:25;15.10;93.20
17887;DHT22;9069;52.044;7.472;2023-05-02T05:26:54;15.10;93.20
17887;DHT22;9069;52.044;7.472;2023-05-02T05:29:21;15.10;93.10
17887;DHT22;9069;52.044;7.472;2023-05-02T05:31:48;15.10;93.00
17887;DHT22;9069;52.044;7.472;2023-05-02T05:34:17;15.10;93.10
17887;DHT22;9069;52.044;7.472;2023-05-02T05:36:45;15.10;93.00
17887;DHT22;9069;52.044;7.472;2023-05-02T05:39:12;15.10;92.90
17887;DHT22;9069;52.044;7.472;2023-05-02T05:41:41;15.10;92.90
17887;DHT22;9069;52.044;7.472;2023-05-02T05:44:10;15.10;92.90
17887;DHT22;9069;52.044;7.472;2023-05-02T05:46:37;15.10;92.80
17887;DHT22;9069;52.044;7.472;2023-05-02T05:49:06;15.10;92.70
17887;DHT22;9069;52.044;7.472;2023-05-02T05:51:34;15.10;92.60
17887;DHT22;9069;52.044;7.472;2023-05-02T05:54:01;15.10;92.60
17887;DHT22;9069;52.044;7.472;2023-05-02T05:56:28;15.10;92.40
17887;DHT22;9069;52.044;7.472;2023-05-02T05:59:03;15.00;92.30
17887;DHT22;9069;52.044;7.472;2023-05-02T06:01:31;15.00;92.10
17887;DHT22;9069;52.044;7.472;2023-05-02T06:03:57;14.90;92.00
17887;DHT22;9069;52.044;7.472;2023-05-02T06:06:24;14.90;91.90
17887;DHT22;9069;52.044;7.472;2023-05-02T06:08:53;14.80;91.80
17887;DHT22;9069;52.044;7.472;2023-05-02T06:11:19;14.80;91.80
17887;DHT22;9069;52.044;7.472;2023-05-02T06:13:46;14.70;91.70
17887;DHT22;9069;52.044;7.472;2023-05-02T06:16:13;14.60;91.50
17887;DHT22;9069;52.044;7.472;2023-05-02T06:18:40;14.50;91.30
17887;DHT22;9069;52.044;7.472;2023-05-02T06:21:07;14.40;91.10
17887;DHT22;9069;52.044;7.472;2023-05-02T06:23:34;14.30;91.10
17887;DHT22;9069;52.044;7.472;2023-05-02T06:26:02;14.20;91.20
17887;DHT22;9069;52.044;7.472;2023-05-02T06:28:30;14.10;91.20
17887;DHT22;9069;52.044;7.472;2023-05-02T06:31:04;14.00;91.10
17887;DHT22;9069;52.044;7.472;2023-05-02T06:33:32;13.90;91.10
17887;DHT22;9069;52.044;7.472;2023-05-02T06:35:59;13.70;91.00
17887;DHT22;9069;52.044;7.472;2023-05-02T06:38:28;13.60;91.20
17887;DHT22;9069;52.044;7.472;2023-05-02T06:40:55;13.50;91.40
17887;DHT22;9069;52.044;7.472;2023-05-02T06:43:22;13.40;91.70
17887;DHT22;9069;52.044;7.472;2023-05-02T06:45:52;13.30;91.90
17887;DHT22;9069;52.044;7.472;2023-05-02T06:48:19;13.30;92.10
17887;DHT22;9069;52.044;7.472;2023-05-02T06:50:47;13.20;92.20
17887;DHT22;9069;52.044;7.472;2023-05-02T06:53:14;13.20;92.50
17887;DHT22;9069;52.044;7.472;2023-05-02T06:55:41;13.20;92.60
17887;DHT22;9069;52.044;7.472;2023-05-02T06:58:08;13.20;92.60
17887;DHT22;9069;52.044;7.472;2023-05-02T07:00:34;13.20;92.60
17887;DHT22;9069;52.044;7.472;2023-05-02T07:03:01;13.20;92.70
17887;DHT22;9069;52.044;7.472;2023-05-02T07:05:28;13.20;92.50
17887;DHT22;9069;52.044;7.472;2023-05-02T07:07:56;13.10;92.40
17887;DHT22;9069;52.044;7.472;2023-05-02T07:10:22;13.10;92.40
17887;DHT22;9069;52.044;7.472;2023-05-02T07:12:49;13.10;92.50
17887;DHT22;9069;52.044;7.472;2023-05-02T07:15:16;13.10;92.50
17887;DHT22;9069;52.044;7.472;2023-05-02T07:17:43;13.10;92.60
17887;DHT22;9069;52.044;7.472;2023-05-02T07:20:10;13.10;92.70
17887;DHT22;9069;52.044;7.472;2023-05-02T07:22:37;13.10;93.00
17887;DHT22;9069;52.044;7.472;2023-05-02T07:25:04;13.10;92.60
17887;DHT22;9069;52.044;7.472;2023-05-02T07:27:32;13.10;92.50
17887;DHT22;9069;52.044;7.472;2023-05-02T07:29:58;13.00;92.30
17887;DHT22;9069;52.044;7.472;2023-05-02T07:32:25;13.00;92.20
17887;DHT22;9069;52.044;7.472;2023-05-02T07:34:53;13.00;92.20
17887;DHT22;9069;52.044;7.472;2023-05-02T07:37:20;13.00;92.20
17887;DHT22;9069;52.044;7.472;2023-05-02T07:39:47;13.00;92.20
17887;DHT22;9069;52.044;7.472;2023-05-02T07:42:14;13.00;92.40
17887;DHT22;9069;52.044;7.472;2023-05-02T07:44:40;13.00;92.30
17887;DHT22;9069;52.044;7.472;2023-05-02T07:47:08;13.00;92.10
17887;DHT22;9069;52.044;7.472;2023-05-02T07:49:35;13.00;92.00
17887;DHT22;9069;52.044;7.472;2023-05-02T07:52:03;13.00;92.00
17887;DHT22;9069;52.044;7.472;2023-05-02T07:54:29;13.10;92.00
17887;DHT22;9069;52.044;7.472;2023-05-02T07:56:56;13.10;91.90
17887;DHT22;9069;52.044;7.472;2023-05-02T07:59:29;13.10;91.70
17887;DHT22;9069;52.044;7.472;2023-05-02T08:01:56;13.10;91.50
17887;DHT22;9069;52.044;7.472;2023-05-02T08:04:23;13.10;91.40
17887;DHT22;9069;52.044;7.472;2023-05-02T08:06:50;13.10;91.50
17887;DHT22;9069;52.044;7.472;2023-05-02T08:09:17;13.10;91.60
17887;DHT22;9069;52.044;7.472;2023-05-02T08:11:44;13.00;91.50
17887;DHT22;9069;52.044;7.472;2023-05-02T08:14:11;13.10;91.60
17887;DHT22;9069;52.044;7.472;2023-05-02T08:16:38;13.10;91.60
17887;DHT22;9069;52.044;7.472;2023-05-02T08:19:05;13.00;91.50
17887;DHT22;9069;52.044;7.472;2023-05-02T08:21:31;13.10;91.50
17887;DHT22;9069;52.044;7.472;2023-05-02T08:23:59;13.20;91.60
17887;DHT22;9069;52.044;7.472;2023-05-02T08:26:26;13.20;92.00
17887;DHT22;9069;52.044;7.472;2023-05-02T08:28:53;13.30;92.20
17887;DHT22;9069;52.044;7.472;2023-05-02T08:31:20;13.40;92.50
17887;DHT22;9069;52.044;7.472;2023-05-02T08:33:47;13.60;92.10
17887;DHT22;9069;52.044;7.472;2023-05-02T08:36:15;13.80;91.90
17887;DHT22;9069;52.044;7.472;2023-05-02T08:38:43;14.00;91.40
17887;DHT22;9069;52.044;7.472;2023-05-02T08:41:19;14.10;91.20
17887;DHT22;9069;52.044;7.472;2023-05-02T08:43:46;14.20;90.60
17887;DHT22;9069;52.044;7.472;2023-05-02T08:46:14;14.20;90.20
17887;DHT22;9069;52.044;7.472;2023-05-02T08:48:44;14.40;90.10
17887;DHT22;9069;52.044;7.472;2023-05-02T08:51:13;14.40;90.10
17887;DHT22;9069;52.044;7.472;2023-05-02T08:53:40;14.50;89.30
17887;DHT22;9069;52.044;7.472;2023-05-02T08:56:09;14.60;89.30
17887;DHT22;9069;52.044;7.472;2023-05-02T08:58:38;14.80;89.40
17887;DHT22;9069;52.044;7.472;2023-05-02T09:01:23;14.90;88.90
17887;DHT22;9069;52.044;7.472;2023-05-02T09:03:54;15.10;87.90
17887;DHT22;9069;52.044;7.472;2023-05-02T09:06:25;15.30;88.10
17887;DHT22;9069;52.044;7.472;2023-05-02T09:08:52;15.40;84.40
17887;DHT22;9069;52.044;7.472;2023-05-02T09:11:19;15.60;84.80
17887;DHT22;9069;52.044;7.472;2023-05-02T09:13:49;15.70;84.50
17887;DHT22;9069;52.044;7.472;2023-05-02T09:16:19;15.80;82.80
17887;DHT22;9069;52.044;7.472;2023-05-02T09:18:53;15.90;80.90
17887;DHT22;9069;52.044;7.472;2023-05-02T09:21:25;16.00;80.50
17887;DHT22;9069;52.044;7.472;2023-05-02T09:23:54;16.10;80.90
17887;DHT22;9069;52.044;7.472;2023-05-02T09:26:21;16.30;80.30
17887;DHT22;9069;52.044;7.472;2023-05-02T09:28:53;16.40;80.10
17887;DHT22;9069;52.044;7.472;2023-05-02T09:31:46;16.60;78.70
17887;DHT22;9069;52.044;7.472;2023-05-02T09:34:22;16.80;77.90
17887;DHT22;9069;52.044;7.472;2023-05-02T09:36:50;17.00;79.00
17887;DHT22;9069;52.044;7.472;2023-05-02T09:39:23;17.10;76.80
17887;DHT22;9069;52.044;7.472;2023-05-02T09:41:52;17.20;75.00
17887;DHT22;9069;52.044;7.472;2023-05-02T09:44:26;17.30;74.00
17887;DHT22;9069;52.044;7.472;2023-05-02T09:47:01;17.40;73.00
17887;DHT22;9069;52.044;7.472;2023-05-02T09:49:44;17.40;72.50
17887;DHT22;9069;52.044;7.472;2023-05-02T09:52:16;17.40;71.10
17887;DHT22;9069;52.044;7.472;2023-05-02T09:54:44;17.40;71.30
17887;DHT22;9069;52.044;7.472;2023-05-02T09:57:18;17.40;71.00
17887;DHT22;9069;52.044;7.472;2023-05-02T09:59:55;17.50;70.60
17887;DHT22;9069;52.044;7.472;2023-05-02T10:02:24;17.50;69.10
17887;DHT22;9069;52.044;7.472;2023-05-02T10:04:52;17.50;69.90
17887;DHT22;9069;52.044;7.472;2023-05-02T10:07:22;17.50;68.90
17887;DHT22;9069;52.044;7.472;2023-05-02T10:09:52;17.40;68.30
17887;DHT22;9069;52.044;7.472;2023-05-02T10:12:22;17.40;67.80
17887;DHT22;9069;52.044;7.472;2023-05-02T10:14:57;17.30;67.70
17887;DHT22;9069;52.044;7.472;2023-05-02T10:17:38;17.30;66.10
17887;DHT22;9069;52.044;7.472;2023-05-02T10:20:09;17.30;65.10
17887;DHT22;9069;52.044;7.472;2023-05-02T10:22:37;17.20;66.90
17887;DHT22;9069;52.044;7.472;2023-05-02T10:25:04;17.20;66.50
17887;DHT22;9069;52.044;7.472;2023-05-02T10:27:32;17.20;66.60
17887;DHT22;9069;52.044;7.472;2023-05-02T10:30:00;17.20;66.60
17887;DHT22;9069;52.044;7.472;2023-05-02T10:32:28;17.20;66.50
17887;DHT22;9069;52.044;7.472;2023-05-02T10:35:02;17.20;66.00
17887;DHT22;9069;52.044;7.472;2023-05-02T10:37:31;17.30;64.80
17887;DHT22;9069;52.044;7.472;2023-05-02T10:39:59;17.30;65.50
17887;DHT22;9069;52.044;7.472;2023-05-02T10:42:27;17.40;65.80
17887;DHT22;9069;52.044;7.472;2023-05-02T10:44:55;17.40;64.70
17887;DHT22;9069;52.044;7.472;2023-05-02T10:47:23;17.50;64.90
17887;DHT22;9069;52.044;7.472;2023-05-02T10:50:02;17.50;65.80
17887;DHT22;9069;52.044;7.472;2023-05-02T10:55:15;17.70;64.40
17887;DHT22;9069;52.044;7.472;2023-05-02T11:00:27;17.90;63.00
17887;DHT22;9069;52.044;7.472;2023-05-02T11:02:55;17.90;64.60
17887;DHT22;9069;52.044;7.472;2023-05-02T11:05:22;18.00;65.90
17887;DHT22;9069;52.044;7.472;2023-05-02T11:10:46;18.20;63.40
17887;DHT22;9069;52.044;7.472;2023-05-02T11:13:13;18.30;63.90
17887;DHT22;9069;52.044;7.472;2023-05-02T11:20:35;18.40;62.00
17887;DHT22;9069;52.044;7.472;2023-05-02T11:25:43;18.50;61.50
17887;DHT22;9069;52.044;7.472;2023-05-02T11:31:07;18.50;61.30
17887;DHT22;9069;52.044;7.472;2023-05-02T11:33:33;18.60;61.50
17887;DHT22;9069;52.044;7.472;2023-05-02T11:36:00;18.60;62.10
17887;DHT22;9069;52.044;7.472;2023-05-02T11:38:37;18.70;62.00
17887;DHT22;9069;52.044;7.472;2023-05-02T11:41:04;18.70;60.60
17887;DHT22;9069;52.044;7.472;2023-05-02T11:43:31;18.80;61.60
17887;DHT22;9069;52.044;7.472;2023-05-02T11:45:59;18.80;61.00
17887;DHT22;9069;52.044;7.472;2023-05-02T11:48:27;18.80;60.80
17887;DHT22;9069;52.044;7.472;2023-05-02T11:50:58;18.80;60.00
17887;DHT22;9069;52.044;7.472;2023-05-02T11:53:29;18.80;59.40
17887;DHT22;9069;52.044;7.472;2023-05-02T11:56:01;18.70;59.30
17887;DHT22;9069;52.044;7.472;2023-05-02T11:58:30;18.70;59.00
17887;DHT22;9069;52.044;7.472;2023-05-02T12:01:11;18.70;59.80
17887;DHT22;9069;52.044;7.472;2023-05-02T12:03:39;18.70;59.00
17887;DHT22;9069;52.044;7.472;2023-05-02T12:06:11;18.70;60.00
17887;DHT22;9069;52.044;7.472;2023-05-02T12:08:41;18.70;59.40
17887;DHT22;9069;52.044;7.472;2023-05-02T12:11:08;18.70;59.50
17887;DHT22;9069;52.044;7.472;2023-05-02T12:13:46;18.70;59.60
17887;DHT22;9069;52.044;7.472;2023-05-02T12:16:14;18.70;59.00
17887;DHT22;9069;52.044;7.472;2023-05-02T12:18:41;18.60;59.40
17887;DHT22;9069;52.044;7.472;2023-05-02T12:21:08;18.60;59.20
17887;DHT22;9069;52.044;7.472;2023-05-02T12:23:35;18.50;59.10
17887;DHT22;9069;52.044;7.472;2023-05-02T12:26:36;18.50;59.30
17887;DHT22;9069;52.044;7.472;2023-05-02T12:29:03;18.50;58.00
17887;DHT22;9069;52.044;7.472;2023-05-02T12:31:32;18.60;59.00
17887;DHT22;9069;52.044;7.472;2023-05-02T12:33:59;18.50;59.20
17887;DHT22;9069;52.044;7.472;2023-05-02T12:36:27;18.40;59.10
17887;DHT22;9069;52.044;7.472;2023-05-02T12:38:55;18.40;58.90
17887;DHT22;9069;52.044;7.472;2023-05-02T12:41:32;18.40;58.70
17887;DHT22;9069;52.044;7.472;2023-05-02T12:43:59;18.40;58.20
17887;DHT22;9069;52.044;7.472;2023-05-02T12:46:26;18.40;58.20
17887;DHT22;9069;52.044;7.472;2023-05-02T12:49:08;18.40;58.30
17887;DHT22;9069;52.044;7.472;2023-05-02T12:51:38;18.40;58.20
17887;DHT22;9069;52.044;7.472;2023-05-02T12:54:05;18.40;58.70
17887;DHT22;9069;52.044;7.472;2023-05-02T12:56:41;18.40;58.60
17887;DHT22;9069;52.044;7.472;2023-05-02T12:59:28;18.40;58.10
17887;DHT22;9069;52.044;7.472;2023-05-02T13:01:55;18.40;57.50
17887;DHT22;9069;52.044;7.472;2023-05-02T13:04:35;18.40;58.20
17887;DHT22;9069;52.044;7.472;2023-05-02T13:07:02;18.40;57.30
17887;DHT22;9069;52.044;7.472;2023-05-02T13:09:29;18.40;57.90
17887;DHT22;9069;52.044;7.472;2023-05-02T13:11:56;18.40;57.90
17887;DHT22;9069;52.044;7.472;2023-05-02T13:14:24;18.40;57.90
17887;DHT22;9069;52.044;7.472;2023-05-02T13:16:51;18.40;57.90
17887;DHT22;9069;52.044;7.472;2023-05-02T13:19:19;18.40;57.90
17887;DHT22;9069;52.044;7.472;2023-05-02T13:21:46;18.40;57.50
17887;DHT22;9069;52.044;7.472;2023-05-02T13:24:13;18.40;57.10
17887;DHT22;9069;52.044;7.472;2023-05-02T13:26:43;18.30;56.40
17887;DHT22;9069;52.044;7.472;2023-05-02T13:29:10;18.30;56.40
17887;DHT22;9069;52.044;7.472;2023-05-02T13:31:37;18.20;56.70
17887;DHT22;9069;52.044;7.472;2023-05-02T13:34:04;18.20;57.10
17887;DHT22;9069;52.044;7.472;2023-05-02T13:36:31;18.20;57.70
17887;DHT22;9069;52.044;7.472;2023-05-02T13:38:58;18.20;57.80
17887;DHT22;9069;52.044;7.472;2023-05-02T13:41:25;18.20;57.70
17887;DHT22;9069;52.044;7.472;2023-05-02T13:43:52;18.30;57.70
17887;DHT22;9069;52.044;7.472;2023-05-02T13:46:19;18.30;57.30
17887;DHT22;9069;52.044;7.472;2023-05-02T13:48:46;18.30;57.20
17887;DHT22;9069;52.044;7.472;2023-05-02T13:51:12;18.30;56.90
17887;DHT22;9069;52.044;7.472;2023-05-02T13:53:39;18.30;56.60
17887;DHT22;9069;52.044;7.472;2023-05-02T13:56:06;18.30;56.10
17887;DHT22;9069;52.044;7.472;2023-05-02T13:58:32;18.20;56.30
17887;DHT22;9069;52.044;7.472;2023-05-02T14:00:59;18.20;56.30
17887;DHT22;9069;52.044;7.472;2023-05-02T14:03:26;18.10;56.00
17887;DHT22;9069;52.044;7.472;2023-05-02T14:05:53;18.00;55.60
17887;DHT22;9069;52.044;7.472;2023-05-02T14:08:20;18.00;55.60
17887;DHT22;9069;52.044;7.472;2023-05-02T14:10:46;17.90;56.00
17887;DHT22;9069;52.044;7.472;2023-05-02T14:13:13;17.90;56.10
17887;DHT22;9069;52.044;7.472;2023-05-02T14:15:40;17.80;56.00
17887;DHT22;9069;52.044;7.472;2023-05-02T14:18:07;17.70;55.90
17887;DHT22;9069;52.044;7.472;2023-05-02T14:20:33;17.70;55.50
17887;DHT22;9069;52.044;7.472;2023-05-02T14:23:00;17.60;55.80
17887;DHT22;9069;52.044;7.472;2023-05-02T14:25:27;17.60;56.10
17887;DHT22;9069;52.044;7.472;2023-05-02T14:27:54;17.50;56.00
17887;DHT22;9069;52.044;7.472;2023-05-02T14:30:20;17.50;55.80
17887;DHT22;9069;52.044;7.472;2023-05-02T14:32:47;17.40;56.50
17887;DHT22;9069;52.044;7.472;2023-05-02T14:35:14;17.40;55.70
17887;DHT22;9069;52.044;7.472;2023-05-02T14:37:40;17.30;55.60
17887;DHT22;9069;52.044;7.472;2023-05-02T14:40:10;17.20;55.70
17887;DHT22;9069;52.044;7.472;2023-05-02T14:42:37;17.20;56.00
17887;DHT22;9069;52.044;7.472;2023-05-02T14:45:05;17.10;55.90
17887;DHT22;9069;52.044;7.472;2023-05-02T14:47:32;17.00;55.90
17887;DHT22;9069;52.044;7.472;2023-05-02T14:49:58;16.90;55.80
17887;DHT22;9069;52.044;7.472;2023-05-02T14:52:26;16.90;55.90
17887;DHT22;9069;52.044;7.472;2023-05-02T14:54:53;16.80;56.10
17887;DHT22;9069;52.044;7.472;2023-05-02T14:57:20;16.80;56.30
17887;DHT22;9069;52.044;7.472;2023-05-02T14:59:46;16.80;56.60
17887;DHT22;9069;52.044;7.472;2023-05-02T15:02:13;16.70;56.70
17887;DHT22;9069;52.044;7.472;2023-05-02T15:04:40;16.70;56.50
17887;DHT22;9069;52.044;7.472;2023-05-02T15:07:07;16.70;57.10
17887;DHT22;9069;52.044;7.472;2023-05-02T15:09:34;16.60;56.30
17887;DHT22;9069;52.044;7.472;2023-05-02T15:12:01;16.60;56.40
17887;DHT22;9069;52.044;7.472;2023-05-02T15:14:30;16.60;56.50
17887;DHT22;9069;52.044;7.472;2023-05-02T15:16:57;16.50;56.40
17887;DHT22;9069;52.044;7.472;2023-05-02T15:19:24;16.50;56.50
17887;DHT22;9069;52.044;7.472;2023-05-02T15:21:50;16.50;56.60
17887;DHT22;9069;52.044;7.472;2023-05-02T15:24:23;16.40;56.40
17887;DHT22;9069;52.044;7.472;2023-05-02T15:26:53;16.50;56.80
17887;DHT22;9069;52.044;7.472;2023-05-02T15:29:20;16.40;56.80
17887;DHT22;9069;52.044;7.472;2023-05-02T15:31:47;16.40;57.00
17887;DHT22;9069;52.044;7.472;2023-05-02T15:34:13;16.40;57.00
17887;DHT22;9069;52.044;7.472;2023-05-02T15:36:40;16.40;56.90
17887;DHT22;9069;52.044;7.472;2023-05-02T15:39:08;16.40;57.10
17887;DHT22;9069;52.044;7.472;2023-05-02T15:41:35;16.40;57.30
17887;DHT22;9069;52.044;7.472;2023-05-02T15:44:02;16.40;57.30
17887;DHT22;9069;52.044;7.472;2023-05-02T15:46:28;16.40;57.20
17887;DHT22;9069;52.044;7.472;2023-05-02T15:48:55;16.50;57.40
17887;DHT22;9069;52.044;7.472;2023-05-02T15:51:22;16.50;57.40
17887;DHT22;9069;52.044;7.472;2023-05-02T15:53:49;16.60;57.30
17887;DHT22;9069;52.044;7.472;2023-05-02T15:56:18;16.60;57.50
17887;DHT22;9069;52.044;7.472;2023-05-02T15:58:46;16.70;57.60
17887;DHT22;9069;52.044;7.472;2023-05-02T16:01:13;16.70;57.50
17887;DHT22;9069;52.044;7.472;2023-05-02T16:03:40;16.80;57.10
17887;DHT22;9069;52.044;7.472;2023-05-02T16:06:07;16.80;56.90
17887;DHT22;9069;52.044;7.472;2023-05-02T16:08:34;16.90;56.80
17887;DHT22;9069;52.044;7.472;2023-05-02T16:11:01;16.90;56.70
17887;DHT22;9069;52.044;7.472;2023-05-02T16:13:28;16.90;56.70
17887;DHT22;9069;52.044;7.472;2023-05-02T16:15:55;16.90;56.90
17887;DHT22;9069;52.044;7.472;2023-05-02T16:18:22;16.90;56.80
17887;DHT22;9069;52.044;7.472;2023-05-02T16:20:56;16.90;56.50
17887;DHT22;9069;52.044;7.472;2023-05-02T16:23:24;16.80;56.10
17887;DHT22;9069;52.044;7.472;2023-05-02T16:25:58;16.80;56.50
17887;DHT22;9069;52.044;7.472;2023-05-02T16:28:25;16.80;56.30
17887;DHT22;9069;52.044;7.472;2023-05-02T16:30:52;16.70;56.20
17887;DHT22;9069;52.044;7.472;2023-05-02T16:33:19;16.70;56.10